createdAt,value
2023-03-24T00:00:02.347Z,65.38
2023-03-24T00:02:00.037Z,65.44
2023-03-24T00:03:29.367Z,65.56
2023-03-24T00:04:53.667Z,65.64
2023-03-24T00:06:27.122Z,65.70
2023-03-24T00:08:02.845Z,65.69
2023-03-24T00:09:36.685Z,65.73
2023-03-24T00:11:10.275Z,65.89
2023-03-24T00:12:34.395Z,65.63
2023-03-24T00:13:58.627Z,66.00
2023-03-24T00:15:20.953Z,65.88
2023-03-24T00:17:05.032Z,66.04
2023-03-24T00:18:31.436Z,66.31
2023-03-24T00:19:56.022Z,66.42
2023-03-24T00:21:21.568Z,66.52
2023-03-24T00:22:48.397Z,66.54
2023-03-24T00:24:19.582Z,66.50
2023-03-24T00:25:54.431Z,66.53
2023-03-24T00:27:31.629Z,67.03
2023-03-24T00:29:05.397Z,66.82
2023-03-24T00:30:38.984Z,67.16
2023-03-24T00:32:01.516Z,67.17
2023-03-24T00:33:27.734Z,67.16
2023-03-24T00:34:57.158Z,67.51
2023-03-24T00:36:31.106Z,67.47
2023-03-24T00:38:04.245Z,67.08
2023-03-24T00:39:28.536Z,67.37
2023-03-24T00:40:51.267Z,67.64
2023-03-24T00:42:15.529Z,67.39
2023-03-24T00:43:40.301Z,67.82
2023-03-24T00:45:03.958Z,67.64
2023-03-24T00:46:39.160Z,67.57
2023-03-24T00:48:12.829Z,67.49
2023-03-24T00:49:43.318Z,67.52
2023-03-24T00:51:05.583Z,67.56
2023-03-24T00:52:34.041Z,67.66
2023-03-24T00:53:57.867Z,67.34
2023-03-24T00:55:24.143Z,67.41
2023-03-24T00:56:53.416Z,67.26
2023-03-24T00:58:31.462Z,67.89
2023-03-24T01:00:06.901Z,67.81
2023-03-24T01:01:34.641Z,67.80
2023-03-24T01:03:10.792Z,67.88
2023-03-24T01:04:36.785Z,68.13
2023-03-24T01:05:58.438Z,68.38
2023-03-24T01:07:32.423Z,68.02
2023-03-24T01:09:17.266Z,68.13
2023-03-24T01:10:50.935Z,68.57
2023-03-24T01:12:26.692Z,68.53
2023-03-24T01:14:00.421Z,68.42
2023-03-24T01:15:29.665Z,68.21
2023-03-24T01:17:10.410Z,68.28
2023-03-24T01:18:35.005Z,68.10
2023-03-24T01:20:07.054Z,68.49
2023-03-24T01:21:41.172Z,68.22
2023-03-24T01:23:16.629Z,68.50
2023-03-24T01:24:58.669Z,68.25
2023-03-24T01:26:20.498Z,68.55
2023-03-24T01:27:54.486Z,68.64
2023-03-24T01:29:27.889Z,68.30
2023-03-24T01:31:13.071Z,68.42
2023-03-24T01:32:35.108Z,68.12
2023-03-24T01:34:08.500Z,68.75
2023-03-24T01:35:32.460Z,68.48
2023-03-24T01:37:06.109Z,68.21
2023-03-24T01:38:27.981Z,68.52
2023-03-24T01:40:02.218Z,69.04
2023-03-24T01:41:35.397Z,68.76
2023-03-24T01:42:57.131Z,68.98
2023-03-24T01:44:26.463Z,68.97
2023-03-24T01:46:08.283Z,69.52
2023-03-24T01:47:34.770Z,69.34
2023-03-24T01:49:04.073Z,69.41
2023-03-24T01:50:37.905Z,69.85
2023-03-24T01:52:19.221Z,69.57
2023-03-24T01:54:13.015Z,69.46
2023-03-24T01:55:58.453Z,69.55
2023-03-24T01:57:50.480Z,69.82
2023-03-24T01:59:26.413Z,69.89
2023-03-24T02:01:14.387Z,70.17
2023-03-24T02:03:43.159Z,70.33
2023-03-24T02:05:12.575Z,70.30
2023-03-24T02:06:36.958Z,70.29
2023-03-24T02:08:12.805Z,70.90
2023-03-24T02:09:57.457Z,71.14
2023-03-24T02:11:28.768Z,70.99
2023-03-24T02:12:55.493Z,71.22
2023-03-24T02:14:28.841Z,70.92
2023-03-24T02:15:58.634Z,71.00
2023-03-24T02:17:34.174Z,71.16
2023-03-24T02:19:10.046Z,71.34
2023-03-24T02:20:41.517Z,71.30
2023-03-24T02:22:14.974Z,71.67
2023-03-24T02:23:50.589Z,71.48
2023-03-24T02:25:24.106Z,71.55
2023-03-24T02:27:06.234Z,71.53
2023-03-24T02:28:42.186Z,71.56
2023-03-24T02:30:15.490Z,71.61
2023-03-24T02:32:05.946Z,71.81
2023-03-24T02:33:48.458Z,71.75
2023-03-24T02:35:33.017Z,71.40
2023-03-24T02:37:18.990Z,71.62
2023-03-24T02:39:05.468Z,71.94
2023-03-24T02:41:00.478Z,71.67
2023-03-24T02:42:45.303Z,71.88
2023-03-24T02:44:10.377Z,71.68
2023-03-24T02:45:46.158Z,71.61
2023-03-24T02:47:22.078Z,71.72
2023-03-24T02:48:58.143Z,72.02
2023-03-24T02:50:31.931Z,71.48
2023-03-24T02:52:16.925Z,71.53
2023-03-24T02:54:08.313Z,71.34
2023-03-24T02:55:49.402Z,71.36
2023-03-24T02:57:34.852Z,71.13
2023-03-24T02:59:55.061Z,71.12
2023-03-24T03:01:49.548Z,71.55
2023-03-24T03:03:38.123Z,71.34
2023-03-24T03:05:02.331Z,71.22
2023-03-24T03:06:56.007Z,71.01
2023-03-24T03:08:32.763Z,71.18
2023-03-24T03:10:08.728Z,71.49
2023-03-24T03:11:44.526Z,71.57
2023-03-24T03:13:15.831Z,71.48
2023-03-24T03:15:00.980Z,71.31
2023-03-24T03:16:27.166Z,71.56
2023-03-24T03:18:00.570Z,71.92
2023-03-24T03:19:22.581Z,71.53
2023-03-24T03:20:58.517Z,71.48
2023-03-24T03:22:29.028Z,71.71
2023-03-24T03:23:53.591Z,71.69
2023-03-24T03:25:38.462Z,71.96
2023-03-24T03:27:20.030Z,71.45
2023-03-24T03:28:43.278Z,71.82
2023-03-24T03:30:30.071Z,71.73
2023-03-24T03:32:11.516Z,71.70
2023-03-24T03:33:35.676Z,72.09
2023-03-24T03:35:09.143Z,71.53
2023-03-24T03:36:45.285Z,71.82
2023-03-24T03:38:06.817Z,71.60
2023-03-24T03:39:42.466Z,71.41
2023-03-24T03:41:16.696Z,71.51
2023-03-24T03:42:52.798Z,71.66
2023-03-24T03:44:18.972Z,71.61
2023-03-24T03:45:52.566Z,71.58
2023-03-24T03:47:34.607Z,71.55
2023-03-24T03:49:05.892Z,71.65
2023-03-24T03:50:28.148Z,71.66
2023-03-24T03:52:05.857Z,71.21
2023-03-24T03:53:39.590Z,71.72
2023-03-24T03:55:20.492Z,71.45
2023-03-24T03:57:03.510Z,71.25
2023-03-24T03:59:17.487Z,71.63
2023-03-24T04:00:49.311Z,71.40
2023-03-24T04:02:55.501Z,71.38
2023-03-24T04:04:20.351Z,71.26
2023-03-24T04:06:09.591Z,71.32
2023-03-24T04:07:53.397Z,71.06
2023-03-24T04:09:57.694Z,71.13
2023-03-24T04:13:45.341Z,71.23
2023-03-24T04:18:02.655Z,71.22
2023-03-24T04:19:53.499Z,71.10
2023-03-24T04:21:28.273Z,71.31
2023-03-24T04:23:14.399Z,71.45
2023-03-24T04:24:55.547Z,71.34
2023-03-24T04:26:38.253Z,71.37
2023-03-24T04:28:09.952Z,71.34
2023-03-24T04:29:47.241Z,71.35
2023-03-24T04:31:26.099Z,71.45
2023-03-24T04:33:11.154Z,71.13
2023-03-24T04:34:45.565Z,71.39
2023-03-24T04:36:43.452Z,71.27
2023-03-24T04:38:33.572Z,71.67
2023-03-24T04:40:28.070Z,71.36
2023-03-24T04:42:04.500Z,71.05
2023-03-24T04:43:51.705Z,71.18
2023-03-24T04:45:33.876Z,71.14
2023-03-24T04:47:24.025Z,70.97
2023-03-24T04:49:34.112Z,71.28
2023-03-24T04:51:07.885Z,71.35
2023-03-24T04:53:11.496Z,71.26
2023-03-24T04:55:05.483Z,71.26
2023-03-24T04:56:55.507Z,70.81
2023-03-24T04:58:31.163Z,71.02
2023-03-24T05:00:08.144Z,70.82
2023-03-24T05:01:53.535Z,71.37
2023-03-24T05:03:39.483Z,71.28
2023-03-24T05:05:14.947Z,70.86
2023-03-24T05:07:11.034Z,71.73
2023-03-24T05:08:52.344Z,71.51
2023-03-24T05:10:32.846Z,71.44
2023-03-24T05:12:18.146Z,71.32
2023-03-24T05:14:26.950Z,71.51
2023-03-24T05:16:08.011Z,71.32
2023-03-24T05:17:48.268Z,71.35
2023-03-24T05:19:24.278Z,71.87
2023-03-24T05:21:19.448Z,71.49
2023-03-24T05:22:55.322Z,71.30
2023-03-24T05:24:35.841Z,71.25
2023-03-24T05:26:01.929Z,71.03
2023-03-24T05:27:48.882Z,71.20
2023-03-24T05:29:33.279Z,71.49
2023-03-24T05:31:18.495Z,71.35
2023-03-24T05:33:02.087Z,70.78
2023-03-24T05:34:55.064Z,71.38
2023-03-24T05:36:51.266Z,70.90
2023-03-24T05:38:38.549Z,71.05
2023-03-24T05:40:12.522Z,70.78
2023-03-24T05:42:04.355Z,71.05
2023-03-24T05:43:49.618Z,71.30
2023-03-24T05:45:33.984Z,71.13
2023-03-24T05:47:10.421Z,71.14
2023-03-24T05:48:55.649Z,71.24
2023-03-24T05:50:42.473Z,70.84
2023-03-24T05:52:16.095Z,71.10
2023-03-24T05:53:42.228Z,71.14
2023-03-24T05:55:11.043Z,71.15
2023-03-24T05:56:44.447Z,71.48
2023-03-24T05:59:20.425Z,71.22
2023-03-24T06:00:48.111Z,71.89
2023-03-24T06:02:40.040Z,71.61
2023-03-24T06:04:24.444Z,71.82
2023-03-24T06:05:59.748Z,72.17
2023-03-24T06:07:45.007Z,72.39
2023-03-24T06:09:18.011Z,72.58
2023-03-24T06:11:02.243Z,72.91
2023-03-24T06:12:38.287Z,73.65
2023-03-24T06:14:18.739Z,73.98
2023-03-24T06:16:03.800Z,73.99
2023-03-24T06:17:58.420Z,74.53
2023-03-24T06:19:47.458Z,74.55
2023-03-24T06:21:18.595Z,74.83
2023-03-24T06:23:05.651Z,75.21
2023-03-24T06:24:39.560Z,75.07
2023-03-24T06:26:22.778Z,75.28
2023-03-24T06:28:04.229Z,75.12
2023-03-24T06:29:49.271Z,75.43
2023-03-24T06:31:24.864Z,75.39
2023-03-24T06:33:01.061Z,75.74
2023-03-24T06:34:39.051Z,75.78
2023-03-24T06:37:01.639Z,76.11
2023-03-24T06:38:54.518Z,76.10
2023-03-24T06:40:39.692Z,76.49
2023-03-24T06:42:09.795Z,76.48
2023-03-24T06:43:45.828Z,76.21
2023-03-24T06:45:31.342Z,76.40
2023-03-24T06:47:07.253Z,76.50
2023-03-24T06:48:53.477Z,76.39
2023-03-24T06:50:42.492Z,76.47
2023-03-24T06:52:30.617Z,76.31
2023-03-24T06:54:09.732Z,76.36
2023-03-24T06:55:43.376Z,76.78
2023-03-24T06:57:08.377Z,76.44
2023-03-24T06:59:06.293Z,76.26
2023-03-24T07:00:35.631Z,76.29
2023-03-24T07:02:05.952Z,76.19
2023-03-24T07:03:44.115Z,75.89
2023-03-24T07:06:03.248Z,75.54
2023-03-24T07:09:40.386Z,75.07
2023-03-24T07:11:13.438Z,75.10
2023-03-24T07:13:13.429Z,74.46
2023-03-24T07:14:58.982Z,74.54
2023-03-24T07:16:44.629Z,74.53
2023-03-24T07:18:43.175Z,73.99
2023-03-24T07:20:32.783Z,74.23
2023-03-24T07:22:09.811Z,73.88
2023-03-24T07:23:51.896Z,73.64
2023-03-24T07:25:43.872Z,73.42
2023-03-24T07:27:35.144Z,73.03
2023-03-24T07:29:15.944Z,72.56
2023-03-24T07:31:40.086Z,72.57
2023-03-24T07:33:04.657Z,72.04
2023-03-24T07:34:50.542Z,71.80
2023-03-24T07:36:44.298Z,71.60
2023-03-24T07:38:40.939Z,71.59
2023-03-24T07:40:18.727Z,70.93
2023-03-24T07:41:59.505Z,71.10
2023-03-24T07:44:08.641Z,70.73
2023-03-24T07:45:55.116Z,70.38
2023-03-24T07:47:29.269Z,70.24
2023-03-24T07:49:19.450Z,70.17
2023-03-24T07:51:22.945Z,69.42
2023-03-24T07:52:47.269Z,69.53
2023-03-24T07:54:21.052Z,68.65
2023-03-24T07:55:45.893Z,68.75
2023-03-24T07:57:37.802Z,68.45
2023-03-24T07:59:02.362Z,67.28
2023-03-24T08:00:37.522Z,67.41
2023-03-24T08:02:45.505Z,67.33
2023-03-24T08:05:20.340Z,67.21
2023-03-24T08:07:18.077Z,66.89
2023-03-24T08:08:53.741Z,66.62
2023-03-24T08:10:36.442Z,66.42
2023-03-24T08:12:21.800Z,65.77
2023-03-24T08:13:55.186Z,65.79
2023-03-24T08:15:30.067Z,65.57
2023-03-24T08:16:52.344Z,64.99
2023-03-24T08:18:33.303Z,64.93
2023-03-24T08:20:04.734Z,64.87
2023-03-24T08:21:37.639Z,64.78
2023-03-24T08:23:30.981Z,64.45
2023-03-24T08:25:25.465Z,64.50
2023-03-24T08:27:10.266Z,64.37
2023-03-24T08:28:49.929Z,63.88
2023-03-24T08:30:44.473Z,63.73
2023-03-24T08:32:11.056Z,64.18
2023-03-24T08:33:47.143Z,63.51
2023-03-24T08:35:36.104Z,63.56
2023-03-24T08:37:11.868Z,63.06
2023-03-24T08:38:52.971Z,62.92
2023-03-24T08:40:36.459Z,62.22
2023-03-24T08:42:21.725Z,61.51
2023-03-24T08:44:07.851Z,61.21
2023-03-24T08:45:30.694Z,61.18
2023-03-24T08:47:15.913Z,60.55
2023-03-24T08:48:49.618Z,60.14
2023-03-24T08:50:34.401Z,60.17
2023-03-24T08:52:16.405Z,60.23
2023-03-24T08:53:40.923Z,59.99
2023-03-24T08:55:25.765Z,59.76
2023-03-24T08:56:54.964Z,59.45
2023-03-24T08:58:39.610Z,58.86
2023-03-24T09:00:31.512Z,58.48
2023-03-24T09:02:16.473Z,58.64
2023-03-24T09:04:05.096Z,58.50
2023-03-24T09:05:50.105Z,57.70
2023-03-24T09:07:22.892Z,57.75
2023-03-24T09:09:04.924Z,57.60
2023-03-24T09:10:49.802Z,57.52
2023-03-24T09:12:23.289Z,57.42
2023-03-24T09:14:00.108Z,57.70
2023-03-24T09:15:54.022Z,58.04
2023-03-24T09:17:29.537Z,57.97
2023-03-24T09:19:10.320Z,57.94
2023-03-24T09:23:01.618Z,58.25
2023-03-24T09:24:42.247Z,58.57
2023-03-24T09:26:15.506Z,58.98
2023-03-24T09:27:40.008Z,59.01
2023-03-24T09:29:15.487Z,59.18
2023-03-24T09:30:58.507Z,59.01
2023-03-24T09:32:20.286Z,58.91
2023-03-24T09:34:06.099Z,59.33
2023-03-24T09:35:37.856Z,59.00
2023-03-24T09:37:22.831Z,58.53
2023-03-24T09:39:19.745Z,58.52
2023-03-24T09:41:08.081Z,58.38
2023-03-24T09:42:41.712Z,58.36
2023-03-24T09:44:32.071Z,58.35
2023-03-24T09:46:05.662Z,58.28
2023-03-24T09:48:00.493Z,58.33
2023-03-24T09:49:41.214Z,58.57
2023-03-24T09:51:16.713Z,58.26
2023-03-24T09:52:40.841Z,58.81
2023-03-24T09:54:14.288Z,59.50
2023-03-24T09:55:48.016Z,60.24
2023-03-24T09:57:23.737Z,60.29
2023-03-24T09:59:06.471Z,60.00
2023-03-24T10:00:49.502Z,59.97
2023-03-24T10:02:34.917Z,59.79
2023-03-24T10:04:17.290Z,59.18
2023-03-24T10:05:58.046Z,59.11
2023-03-24T10:07:31.097Z,59.04
2023-03-24T10:08:58.324Z,58.91
2023-03-24T10:10:32.045Z,58.55
2023-03-24T10:12:05.751Z,58.51
2023-03-24T10:13:40.507Z,58.52
2023-03-24T10:15:14.976Z,58.53
2023-03-24T10:16:47.110Z,58.48
2023-03-24T10:18:20.772Z,58.75
2023-03-24T10:19:42.450Z,58.75
2023-03-24T10:21:37.449Z,58.67
2023-03-24T10:23:10.968Z,58.32
2023-03-24T10:24:53.857Z,58.28
2023-03-24T10:26:18.351Z,57.94
2023-03-24T10:27:50.143Z,58.49
2023-03-24T10:29:23.338Z,58.06
2023-03-24T10:31:05.047Z,58.04
2023-03-24T10:32:47.434Z,58.03
2023-03-24T10:34:22.826Z,58.22
2023-03-24T10:35:56.744Z,58.63
2023-03-24T10:37:31.571Z,58.74
2023-03-24T10:39:16.548Z,58.69
2023-03-24T10:40:53.576Z,58.62
2023-03-24T10:42:27.251Z,58.42
2023-03-24T10:44:03.171Z,58.24
2023-03-24T10:45:48.515Z,58.38
2023-03-24T10:47:12.411Z,58.49
2023-03-24T10:48:36.710Z,58.71
2023-03-24T10:50:14.434Z,58.19
2023-03-24T10:51:56.670Z,58.39
2023-03-24T10:53:41.525Z,58.24
2023-03-24T10:55:26.460Z,58.19
2023-03-24T10:57:10.752Z,58.27
2023-03-24T10:58:34.658Z,58.33
2023-03-24T11:00:26.420Z,58.32
2023-03-24T11:01:52.372Z,58.52
2023-03-24T11:03:21.894Z,58.12
2023-03-24T11:05:15.695Z,57.97
2023-03-24T11:07:10.471Z,57.98
2023-03-24T11:08:46.553Z,58.04
2023-03-24T11:10:22.181Z,58.07
2023-03-24T11:11:58.339Z,57.74
2023-03-24T11:13:29.340Z,57.77
2023-03-24T11:15:14.154Z,57.78
2023-03-24T11:16:50.540Z,57.54
2023-03-24T11:18:22.023Z,57.20
2023-03-24T11:19:58.147Z,57.35
2023-03-24T11:21:19.705Z,57.00
2023-03-24T11:23:05.640Z,57.11
2023-03-24T11:24:27.181Z,56.56
2023-03-24T11:26:02.664Z,56.54
2023-03-24T11:27:31.728Z,56.38
2023-03-24T11:29:06.269Z,55.51
2023-03-24T11:30:43.104Z,54.89
2023-03-24T11:32:08.440Z,54.87
2023-03-24T11:33:47.081Z,54.83
2023-03-24T11:35:13.292Z,54.27
2023-03-24T11:37:05.791Z,53.59
2023-03-24T11:38:37.187Z,52.94
2023-03-24T11:40:01.494Z,52.26
2023-03-24T11:41:42.294Z,51.30
2023-03-24T11:43:11.797Z,50.85
2023-03-24T11:45:00.320Z,50.36
2023-03-24T11:46:36.208Z,50.02
2023-03-24T11:48:12.489Z,49.79
2023-03-24T11:49:34.031Z,49.17
2023-03-24T11:51:18.913Z,48.44
2023-03-24T11:53:08.042Z,48.37
2023-03-24T11:54:32.964Z,48.25
2023-03-24T11:56:17.858Z,48.47
2023-03-24T11:57:51.347Z,48.83
2023-03-24T11:59:45.470Z,49.26
2023-03-24T12:01:19.516Z,49.33
2023-03-24T12:02:51.498Z,49.25
2023-03-24T12:04:25.120Z,48.95
2023-03-24T12:06:19.536Z,48.88
2023-03-24T12:07:53.357Z,48.95
2023-03-24T12:09:38.130Z,48.67
2023-03-24T12:11:13.673Z,48.27
2023-03-24T12:12:59.073Z,48.35
2023-03-24T12:14:44.149Z,48.12
2023-03-24T12:16:29.563Z,48.04
2023-03-24T12:18:14.633Z,48.18
2023-03-24T12:19:36.181Z,48.33
2023-03-24T12:21:21.945Z,48.32
2023-03-24T12:22:46.466Z,48.11
2023-03-24T12:24:40.481Z,48.03
2023-03-24T12:26:18.649Z,47.67
2023-03-24T12:28:04.323Z,47.74
2023-03-24T12:29:35.483Z,47.42
2023-03-24T12:31:20.775Z,47.79
2023-03-24T12:32:54.978Z,47.71
2023-03-24T12:34:28.199Z,47.70
2023-03-24T12:36:09.162Z,47.49
2023-03-24T12:37:40.133Z,47.59
2023-03-24T12:39:04.612Z,47.93
2023-03-24T12:40:28.380Z,47.72
2023-03-24T12:42:09.484Z,47.49
2023-03-24T12:43:43.327Z,47.51
2023-03-24T12:45:28.446Z,47.38
2023-03-24T12:47:13.795Z,47.24
2023-03-24T12:48:45.340Z,47.46
2023-03-24T12:52:29.380Z,46.91
2023-03-24T12:53:53.759Z,46.93
2023-03-24T12:55:27.542Z,47.05
2023-03-24T12:57:09.524Z,47.10
2023-03-24T12:58:53.413Z,47.16
2023-03-24T13:00:29.400Z,47.03
2023-03-24T13:02:04.895Z,46.93
2023-03-24T13:03:28.621Z,46.70
2023-03-24T13:05:04.563Z,46.14
2023-03-24T13:06:29.298Z,45.86
2023-03-24T13:08:14.483Z,45.65
2023-03-24T13:09:50.184Z,45.42
2023-03-24T13:11:34.620Z,45.34
2023-03-24T13:13:09.877Z,44.96
2023-03-24T13:14:51.876Z,44.74
2023-03-24T13:16:34.010Z,44.71
2023-03-24T13:17:58.575Z,44.70
2023-03-24T13:19:33.970Z,44.51
2023-03-24T13:21:09.888Z,45.08
2023-03-24T13:22:50.894Z,45.40
2023-03-24T13:24:14.867Z,45.82
2023-03-24T13:25:46.969Z,46.04
2023-03-24T13:27:20.401Z,46.34
2023-03-24T13:29:06.493Z,46.08
2023-03-24T13:30:27.980Z,45.96
2023-03-24T13:32:01.082Z,45.45
2023-03-24T13:33:46.161Z,45.26
2023-03-24T13:35:39.841Z,44.86
2023-03-24T13:37:21.113Z,44.73
2023-03-24T13:39:03.079Z,44.91
2023-03-24T13:40:32.349Z,45.06
2023-03-24T13:42:18.565Z,45.31
2023-03-24T13:44:03.934Z,45.93
2023-03-24T13:45:27.806Z,45.72
2023-03-24T13:47:04.984Z,45.67
2023-03-24T13:48:59.506Z,45.97
2023-03-24T13:50:35.557Z,46.40
2023-03-24T13:52:11.881Z,46.83
2023-03-24T13:53:41.070Z,47.12
2023-03-24T13:55:27.420Z,47.55
2023-03-24T13:56:51.888Z,47.59
2023-03-24T13:58:46.522Z,47.77
2023-03-24T14:00:40.501Z,47.96
2023-03-24T14:02:21.929Z,48.12
2023-03-24T14:04:10.643Z,48.18
2023-03-24T14:05:44.323Z,48.13
2023-03-24T14:07:18.324Z,48.10
2023-03-24T14:09:03.678Z,47.74
2023-03-24T14:10:37.040Z,47.81
2023-03-24T14:12:22.422Z,48.05
2023-03-24T14:13:59.604Z,47.90
2023-03-24T14:15:23.420Z,47.88
2023-03-24T14:16:57.191Z,47.40
2023-03-24T14:18:39.532Z,47.56
2023-03-24T14:20:25.001Z,47.50
2023-03-24T14:22:18.549Z,47.48
2023-03-24T14:23:59.219Z,47.73
2023-03-24T14:25:53.526Z,47.74
2023-03-24T14:27:27.069Z,47.97
2023-03-24T14:29:00.395Z,48.05
2023-03-24T14:30:53.625Z,48.11
2023-03-24T14:32:27.054Z,48.15
2023-03-24T14:34:03.892Z,48.17
2023-03-24T14:35:25.663Z,48.09
2023-03-24T14:36:55.223Z,48.39
2023-03-24T14:38:20.606Z,48.52
2023-03-24T14:40:05.753Z,48.59
2023-03-24T14:41:49.259Z,48.67
2023-03-24T14:43:22.622Z,48.32
2023-03-24T14:45:14.200Z,48.43
2023-03-24T14:46:55.833Z,48.48
2023-03-24T14:48:36.481Z,48.71
2023-03-24T14:50:10.423Z,48.27
2023-03-24T14:51:43.982Z,48.43
2023-03-24T14:53:08.172Z,48.28
2023-03-24T14:54:55.573Z,48.37
2023-03-24T14:56:44.925Z,48.42
2023-03-24T14:58:18.107Z,48.46
2023-03-24T15:00:05.902Z,48.77
2023-03-24T15:04:01.335Z,48.99
2023-03-24T15:05:46.751Z,49.11
2023-03-24T15:07:20.137Z,49.41
2023-03-24T15:08:56.533Z,49.36
2023-03-24T15:10:25.689Z,49.51
2023-03-24T15:12:09.884Z,49.59
2023-03-24T15:13:33.806Z,50.12
2023-03-24T15:15:10.561Z,50.37
2023-03-24T15:16:43.705Z,50.69
2023-03-24T15:18:18.037Z,51.10
2023-03-24T15:19:42.284Z,51.07
2023-03-24T15:21:17.735Z,50.97
2023-03-24T15:23:03.236Z,51.04
2023-03-24T15:24:38.794Z,51.12
2023-03-24T15:26:08.237Z,51.41
2023-03-24T15:27:43.606Z,51.39
2023-03-24T15:29:28.737Z,51.77
2023-03-24T15:31:04.584Z,51.75
2023-03-24T15:32:39.280Z,52.03
2023-03-24T15:34:12.981Z,52.07
2023-03-24T15:35:58.337Z,52.05
2023-03-24T15:37:41.043Z,51.90
2023-03-24T15:39:05.950Z,52.07
2023-03-24T15:40:30.445Z,52.00
2023-03-24T15:42:08.605Z,52.24
2023-03-24T15:43:49.563Z,52.68
2023-03-24T15:45:22.958Z,53.62
2023-03-24T15:47:16.625Z,53.98
2023-03-24T15:48:52.510Z,55.02
2023-03-24T15:50:16.545Z,56.09
2023-03-24T15:51:50.177Z,57.45
2023-03-24T15:53:14.274Z,58.18
2023-03-24T15:54:49.185Z,59.42
2023-03-24T15:56:42.423Z,60.83
2023-03-24T15:58:18.329Z,63.49
2023-03-24T15:59:54.357Z,63.95
2023-03-24T16:01:41.981Z,63.57
2023-03-24T16:03:16.870Z,64.36
2023-03-24T16:05:00.207Z,64.89
2023-03-24T16:06:30.169Z,66.06
2023-03-24T16:08:03.896Z,66.33
2023-03-24T16:09:57.577Z,67.57
2023-03-24T16:11:31.275Z,68.98
2023-03-24T16:13:17.425Z,70.17
2023-03-24T16:14:51.209Z,70.59
2023-03-24T16:16:17.787Z,71.43
2023-03-24T16:17:57.580Z,72.18
2023-03-24T16:19:33.607Z,72.27
2023-03-24T16:21:20.955Z,72.92
2023-03-24T16:22:59.816Z,73.33
2023-03-24T16:24:35.525Z,74.02
2023-03-24T16:25:57.714Z,74.72
2023-03-24T16:27:31.171Z,74.67
2023-03-24T16:28:55.409Z,75.31
2023-03-24T16:30:40.368Z,75.22
2023-03-24T16:32:25.669Z,75.33
2023-03-24T16:34:01.651Z,75.59
2023-03-24T16:35:25.692Z,77.95
2023-03-24T16:37:11.329Z,76.83
2023-03-24T16:38:52.329Z,76.53
2023-03-24T16:40:26.088Z,77.15
2023-03-24T16:41:48.300Z,77.23
2023-03-24T16:45:53.234Z,78.16
2023-03-24T16:47:26.737Z,78.72
2023-03-24T16:49:12.353Z,79.80
2023-03-24T16:50:57.813Z,80.27
2023-03-24T16:52:39.595Z,81.00
2023-03-24T16:54:12.936Z,80.68
2023-03-24T16:55:47.468Z,80.66
2023-03-24T16:57:11.590Z,80.75
2023-03-24T16:58:35.585Z,80.71
2023-03-24T17:00:11.812Z,80.78
2023-03-24T17:01:53.181Z,80.88
2023-03-24T17:03:17.856Z,80.52
2023-03-24T17:04:52.242Z,81.00
2023-03-24T17:06:14.171Z,80.90
2023-03-24T17:07:35.594Z,81.27
2023-03-24T17:09:10.579Z,81.13
2023-03-24T17:10:55.386Z,81.11
2023-03-24T17:12:31.338Z,81.57
2023-03-24T17:14:08.772Z,81.21
2023-03-24T17:15:30.643Z,81.13
2023-03-24T17:17:02.788Z,81.14
2023-03-24T17:18:43.593Z,80.89
2023-03-24T17:20:19.917Z,80.69
2023-03-24T17:21:41.885Z,81.07
2023-03-24T17:23:26.381Z,81.24
2023-03-24T17:24:48.962Z,81.04
2023-03-24T17:26:10.784Z,81.30
2023-03-24T17:27:51.834Z,81.33
2023-03-24T17:29:27.761Z,81.24
2023-03-24T17:31:09.122Z,81.24
2023-03-24T17:32:45.552Z,80.97
2023-03-24T17:34:22.139Z,81.06
2023-03-24T17:35:56.378Z,81.04
2023-03-24T17:37:29.769Z,81.09
2023-03-24T17:39:16.041Z,80.96
2023-03-24T17:40:37.935Z,80.99
2023-03-24T17:42:19.063Z,80.93
2023-03-24T17:44:01.603Z,80.99
2023-03-24T17:45:25.280Z,80.98
2023-03-24T17:46:58.910Z,81.01
2023-03-24T17:48:45.813Z,80.87
2023-03-24T17:50:31.706Z,81.01
2023-03-24T17:52:01.447Z,81.00
2023-03-24T17:53:39.320Z,80.97
2023-03-24T17:55:12.985Z,80.78
2023-03-24T17:56:46.392Z,80.59
2023-03-24T17:58:32.234Z,80.88
2023-03-24T18:00:07.173Z,80.52
2023-03-24T18:01:29.479Z,80.67
2023-03-24T18:02:52.712Z,80.63
2023-03-24T18:04:26.130Z,80.61
2023-03-24T18:06:19.701Z,80.62
2023-03-24T18:07:42.156Z,80.54
2023-03-24T18:09:07.433Z,80.56
2023-03-24T18:10:52.541Z,80.51
2023-03-24T18:12:25.860Z,80.61
2023-03-24T18:14:11.601Z,80.65
2023-03-24T18:16:13.155Z,80.79
2023-03-24T18:17:51.606Z,80.61
2023-03-24T18:19:24.954Z,80.59
2023-03-24T18:21:07.596Z,80.70
2023-03-24T18:22:42.896Z,80.63
2023-03-24T18:24:18.433Z,80.74
2023-03-24T18:25:47.547Z,81.03
2023-03-24T18:27:41.555Z,81.01
2023-03-24T18:29:22.741Z,80.84
2023-03-24T18:30:56.927Z,80.87
2023-03-24T18:32:41.029Z,80.92
2023-03-24T18:34:05.401Z,80.92
2023-03-24T18:35:38.700Z,80.86
2023-03-24T18:37:03.387Z,81.18
2023-03-24T18:38:52.337Z,80.97
2023-03-24T18:40:46.911Z,81.08
2023-03-24T18:42:21.148Z,81.01
2023-03-24T18:44:15.681Z,80.92
2023-03-24T18:45:49.144Z,81.00
2023-03-24T18:47:42.526Z,81.14
2023-03-24T18:49:19.141Z,80.97
2023-03-24T18:50:55.610Z,81.16
2023-03-24T18:52:28.470Z,81.14
2023-03-24T18:54:10.723Z,81.05
2023-03-24T18:55:56.091Z,81.14
2023-03-24T18:57:49.615Z,81.19
2023-03-24T18:59:34.377Z,80.92
2023-03-24T19:00:56.466Z,81.08
2023-03-24T19:02:18.458Z,80.88
2023-03-24T19:04:03.952Z,80.75
2023-03-24T19:05:57.027Z,80.78
2023-03-24T19:07:44.533Z,80.67
2023-03-24T19:09:18.253Z,80.74
2023-03-24T19:11:00.583Z,80.73
2023-03-24T19:12:24.459Z,80.82
2023-03-24T19:13:49.668Z,80.70
2023-03-24T19:15:18.932Z,80.66
2023-03-24T19:16:52.794Z,80.64
2023-03-24T19:18:28.342Z,80.62
2023-03-24T19:20:12.733Z,80.71
2023-03-24T19:21:56.312Z,80.48
2023-03-24T19:23:17.824Z,80.72
2023-03-24T19:25:02.050Z,80.70
2023-03-24T19:26:37.372Z,80.44
2023-03-24T19:27:59.592Z,80.38
2023-03-24T19:29:28.537Z,80.34
2023-03-24T19:31:05.902Z,80.27
2023-03-24T19:32:30.230Z,80.33
2023-03-24T19:34:11.740Z,80.10
2023-03-24T19:36:05.059Z,80.28
2023-03-24T19:37:40.613Z,80.29
2023-03-24T19:39:26.437Z,80.01
2023-03-24T19:40:55.925Z,80.10
2023-03-24T19:42:47.038Z,80.58
2023-03-24T19:44:22.293Z,80.12
2023-03-24T19:46:04.770Z,79.87
2023-03-24T19:47:30.465Z,81.00
2023-03-24T19:49:15.844Z,81.72
2023-03-24T19:50:52.943Z,82.18
2023-03-24T19:52:24.358Z,82.50
2023-03-24T19:54:09.996Z,82.38
2023-03-24T19:55:33.655Z,82.32
2023-03-24T19:56:55.951Z,81.98
2023-03-24T19:58:20.047Z,82.11
2023-03-24T19:59:49.442Z,82.20
2023-03-24T20:01:21.527Z,82.58
2023-03-24T20:02:46.124Z,82.51
2023-03-24T20:04:31.056Z,81.90
2023-03-24T20:06:18.484Z,80.38
2023-03-24T20:07:48.797Z,79.81
2023-03-24T20:09:13.375Z,79.39
2023-03-24T20:10:44.649Z,78.58
2023-03-24T20:12:39.573Z,78.52
2023-03-24T20:14:16.712Z,78.65
2023-03-24T20:16:05.288Z,78.80
2023-03-24T20:17:49.194Z,78.75
2023-03-24T20:19:43.659Z,78.67
2023-03-24T20:21:28.657Z,79.17
2023-03-24T20:23:13.932Z,79.04
2023-03-24T20:24:38.590Z,78.83
2023-03-24T20:26:12.646Z,78.99
2023-03-24T20:28:05.635Z,79.34
2023-03-24T20:29:46.607Z,79.22
2023-03-24T20:31:32.176Z,79.88
2023-03-24T20:33:05.999Z,79.58
2023-03-24T20:35:00.582Z,79.96
2023-03-24T20:36:29.678Z,79.81
2023-03-24T20:38:03.446Z,79.83
2023-03-24T20:39:36.595Z,80.37
2023-03-24T20:41:12.914Z,80.51
2023-03-24T20:42:49.558Z,80.34
2023-03-24T20:44:11.484Z,80.76
2023-03-24T20:45:47.451Z,80.58
2023-03-24T20:47:19.166Z,80.43
2023-03-24T20:48:53.098Z,80.92
2023-03-24T20:50:17.839Z,80.91
2023-03-24T20:51:51.652Z,80.59
2023-03-24T20:53:36.460Z,80.36
2023-03-24T20:55:01.572Z,81.34
2023-03-24T20:56:42.062Z,80.79
2023-03-24T20:58:08.106Z,80.80
2023-03-24T20:59:41.314Z,80.87
2023-03-24T21:01:20.533Z,80.98
2023-03-24T21:03:06.275Z,80.60
2023-03-24T21:04:46.857Z,80.46
2023-03-24T21:06:21.917Z,80.95
2023-03-24T21:07:45.872Z,80.99
2023-03-24T21:09:15.063Z,80.50
2023-03-24T21:10:57.286Z,80.79
2023-03-24T21:12:53.373Z,80.70
2023-03-24T21:14:35.823Z,80.86
2023-03-24T21:16:08.072Z,80.59
2023-03-24T21:17:32.853Z,80.49
2023-03-24T21:19:10.288Z,80.34